sensor_id;sensor_type;location;lat;lon;timestamp;P1;durP1;ratioP1;P2;durP2;ratioP2
4565;SDS011;2295;51.050;14.608;2023-03-01T01:07:46;30.63;;;12.05;;
4565;SDS011;2295;51.050;14.608;2023-03-01T01:11:11;28.02;;;11.27;;
4565;SDS011;2295;51.050;14.608;2023-03-01T01:14:01;24.70;;;10.25;;
4565;SDS011;2295;51.050;14.608;2023-03-01T01:17:01;25.55;;;10.80;;
4565;SDS011;2295;51.050;14.608;2023-03-01T01:20:13;24.50;;;10.40;;
4565;SDS011;2295;51.050;14.608;2023-03-01T01:23:33;27.25;;;10.80;;
4565;SDS011;2295;51.050;14.608;2023-03-01T01:26:35;25.13;;;10.45;;
4565;SDS011;2295;51.050;14.608;2023-03-01T01:29:21;31.10;;;11.65;;
4565;SDS011;2295;51.050;14.608;2023-03-01T01:32:57;29.75;;;11.20;;
4565;SDS011;2295;51.050;14.608;2023-03-01T01:36:07;29.73;;;10.63;;
4565;SDS011;2295;51.050;14.608;2023-03-01T01:40:07;34.97;;;12.52;;
4565;SDS011;2295;51.050;14.608;2023-03-01T01:43:14;34.65;;;12.93;;
4565;SDS011;2295;51.050;14.608;2023-03-01T01:57:18;27.55;;;11.95;;
4565;SDS011;2295;51.050;14.608;2023-03-01T02:00:12;32.45;;;12.40;;
4565;SDS011;2295;51.050;14.608;2023-03-01T02:03:36;28.08;;;11.35;;
4565;SDS011;2295;51.050;14.608;2023-03-01T02:07:22;30.40;;;11.48;;
4565;SDS011;2295;51.050;14.608;2023-03-01T02:56:55;30.30;;;11.88;;
4565;SDS011;2295;51.050;14.608;2023-03-01T02:59:24;34.53;;;12.98;;
4565;SDS011;2295;51.050;14.608;2023-03-01T03:01:57;35.25;;;13.40;;
4565;SDS011;2295;51.050;14.608;2023-03-01T03:04:28;41.65;;;15.10;;
4565;SDS011;2295;51.050;14.608;2023-03-01T03:06:57;33.42;;;12.43;;
4565;SDS011;2295;51.050;14.608;2023-03-01T03:09:25;40.65;;;14.50;;
4565;SDS011;2295;51.050;14.608;2023-03-01T03:11:56;39.10;;;13.38;;
4565;SDS011;2295;51.050;14.608;2023-03-01T03:14:25;42.65;;;13.52;;
4565;SDS011;2295;51.050;14.608;2023-03-01T03:16:54;37.88;;;13.30;;
4565;SDS011;2295;51.050;14.608;2023-03-01T03:19:23;31.20;;;12.52;;
4565;SDS011;2295;51.050;14.608;2023-03-01T03:21:52;26.67;;;11.63;;
4565;SDS011;2295;51.050;14.608;2023-03-01T03:24:20;33.30;;;12.25;;
4565;SDS011;2295;51.050;14.608;2023-03-01T03:26:49;48.42;;;16.30;;
4565;SDS011;2295;51.050;14.608;2023-03-01T03:29:19;33.40;;;14.70;;
4565;SDS011;2295;51.050;14.608;2023-03-01T03:31:51;37.83;;;15.15;;
4565;SDS011;2295;51.050;14.608;2023-03-01T03:34:20;35.40;;;13.73;;
4565;SDS011;2295;51.050;14.608;2023-03-01T03:36:52;36.00;;;12.02;;
4565;SDS011;2295;51.050;14.608;2023-03-01T03:39:26;26.92;;;12.07;;
4565;SDS011;2295;51.050;14.608;2023-03-01T03:41:55;30.65;;;12.80;;
4565;SDS011;2295;51.050;14.608;2023-03-01T03:44:26;32.95;;;12.85;;
4565;SDS011;2295;51.050;14.608;2023-03-01T03:46:58;30.55;;;12.85;;
4565;SDS011;2295;51.050;14.608;2023-03-01T03:49:35;41.20;;;14.73;;
4565;SDS011;2295;51.050;14.608;2023-03-01T03:52:04;37.72;;;13.40;;
4565;SDS011;2295;51.050;14.608;2023-03-01T03:54:42;37.70;;;13.73;;
4565;SDS011;2295;51.050;14.608;2023-03-01T03:57:14;39.20;;;14.30;;
4565;SDS011;2295;51.050;14.608;2023-03-01T03:59:44;52.58;;;13.98;;
4565;SDS011;2295;51.050;14.608;2023-03-01T04:02:13;34.72;;;12.65;;
4565;SDS011;2295;51.050;14.608;2023-03-01T04:04:48;32.45;;;12.70;;
4565;SDS011;2295;51.050;14.608;2023-03-01T04:07:20;31.50;;;12.40;;
4565;SDS011;2295;51.050;14.608;2023-03-01T04:09:49;29.33;;;12.50;;
4565;SDS011;2295;51.050;14.608;2023-03-01T04:12:21;28.25;;;11.25;;
4565;SDS011;2295;51.050;14.608;2023-03-01T04:14:54;30.90;;;11.63;;
4565;SDS011;2295;51.050;14.608;2023-03-01T04:17:39;33.60;;;12.20;;
4565;SDS011;2295;51.050;14.608;2023-03-01T04:20:18;31.80;;;12.38;;
4565;SDS011;2295;51.050;14.608;2023-03-01T04:22:56;29.75;;;11.45;;
4565;SDS011;2295;51.050;14.608;2023-03-01T04:25:30;37.40;;;13.18;;
4565;SDS011;2295;51.050;14.608;2023-03-01T04:27:59;32.58;;;12.43;;
4565;SDS011;2295;51.050;14.608;2023-03-01T04:30:30;33.53;;;12.07;;
4565;SDS011;2295;51.050;14.608;2023-03-01T04:33:10;27.85;;;10.20;;
4565;SDS011;2295;51.050;14.608;2023-03-01T04:35:42;37.72;;;11.15;;
4565;SDS011;2295;51.050;14.608;2023-03-01T04:38:11;32.47;;;11.70;;
4565;SDS011;2295;51.050;14.608;2023-03-01T04:40:40;41.75;;;12.63;;
4565;SDS011;2295;51.050;14.608;2023-03-01T04:43:10;33.60;;;12.35;;
4565;SDS011;2295;51.050;14.608;2023-03-01T04:45:42;30.80;;;12.65;;
4565;SDS011;2295;51.050;14.608;2023-03-01T04:48:17;29.35;;;12.27;;
4565;SDS011;2295;51.050;14.608;2023-03-01T04:50:46;32.95;;;12.40;;
4565;SDS011;2295;51.050;14.608;2023-03-01T04:53:16;33.13;;;11.73;;
4565;SDS011;2295;51.050;14.608;2023-03-01T04:55:45;35.00;;;12.85;;
4565;SDS011;2295;51.050;14.608;2023-03-01T04:58:14;33.10;;;13.27;;
4565;SDS011;2295;51.050;14.608;2023-03-01T05:00:47;38.13;;;12.38;;
4565;SDS011;2295;51.050;14.608;2023-03-01T05:03:16;33.17;;;12.20;;
4565;SDS011;2295;51.050;14.608;2023-03-01T05:05:48;37.25;;;12.63;;
4565;SDS011;2295;51.050;14.608;2023-03-01T05:08:26;29.30;;;12.35;;
4565;SDS011;2295;51.050;14.608;2023-03-01T05:10:55;35.47;;;12.35;;
4565;SDS011;2295;51.050;14.608;2023-03-01T05:13:24;28.65;;;11.43;;
4565;SDS011;2295;51.050;14.608;2023-03-01T05:16:06;35.65;;;13.30;;
4565;SDS011;2295;51.050;14.608;2023-03-01T05:18:46;50.88;;;15.63;;
4565;SDS011;2295;51.050;14.608;2023-03-01T05:21:21;34.22;;;12.60;;
4565;SDS011;2295;51.050;14.608;2023-03-01T05:23:57;44.70;;;14.10;;
4565;SDS011;2295;51.050;14.608;2023-03-01T05:26:29;37.10;;;13.20;;
4565;SDS011;2295;51.050;14.608;2023-03-01T05:28:58;58.25;;;20.27;;
4565;SDS011;2295;51.050;14.608;2023-03-01T05:31:29;172.20;;;55.22;;
4565;SDS011;2295;51.050;14.608;2023-03-01T05:34:00;377.08;;;108.90;;
4565;SDS011;2295;51.050;14.608;2023-03-01T05:36:32;103.53;;;33.83;;
4565;SDS011;2295;51.050;14.608;2023-03-01T05:39:02;70.35;;;25.52;;
4565;SDS011;2295;51.050;14.608;2023-03-01T05:41:31;86.80;;;28.48;;
4565;SDS011;2295;51.050;14.608;2023-03-01T05:44:00;98.13;;;32.38;;
4565;SDS011;2295;51.050;14.608;2023-03-01T05:46:33;79.60;;;26.80;;
4565;SDS011;2295;51.050;14.608;2023-03-01T05:49:09;73.95;;;21.88;;
4565;SDS011;2295;51.050;14.608;2023-03-01T05:51:41;76.25;;;25.30;;
4565;SDS011;2295;51.050;14.608;2023-03-01T05:54:14;111.70;;;28.15;;
4565;SDS011;2295;51.050;14.608;2023-03-01T05:56:45;105.30;;;28.92;;
4565;SDS011;2295;51.050;14.608;2023-03-01T05:59:14;80.93;;;23.90;;
4565;SDS011;2295;51.050;14.608;2023-03-01T06:01:48;58.78;;;20.92;;
4565;SDS011;2295;51.050;14.608;2023-03-01T06:04:17;51.28;;;18.13;;
4565;SDS011;2295;51.050;14.608;2023-03-01T06:06:46;50.97;;;16.98;;
4565;SDS011;2295;51.050;14.608;2023-03-01T06:09:15;40.78;;;15.98;;
4565;SDS011;2295;51.050;14.608;2023-03-01T06:11:43;50.40;;;16.98;;
4565;SDS011;2295;51.050;14.608;2023-03-01T06:14:13;46.58;;;16.02;;
4565;SDS011;2295;51.050;14.608;2023-03-01T06:16:42;42.92;;;15.93;;
4565;SDS011;2295;51.050;14.608;2023-03-01T06:19:12;55.00;;;18.50;;
4565;SDS011;2295;51.050;14.608;2023-03-01T06:21:44;51.10;;;16.42;;
4565;SDS011;2295;51.050;14.608;2023-03-01T06:24:16;45.42;;;15.80;;
4565;SDS011;2295;51.050;14.608;2023-03-01T06:26:46;43.67;;;16.63;;
4565;SDS011;2295;51.050;14.608;2023-03-01T06:29:16;34.17;;;15.55;;
4565;SDS011;2295;51.050;14.608;2023-03-01T06:31:55;45.10;;;15.50;;
4565;SDS011;2295;51.050;14.608;2023-03-01T06:34:25;47.20;;;17.17;;
4565;SDS011;2295;51.050;14.608;2023-03-01T06:36:57;86.85;;;28.52;;
4565;SDS011;2295;51.050;14.608;2023-03-01T06:39:27;110.60;;;37.70;;
4565;SDS011;2295;51.050;14.608;2023-03-01T06:41:55;88.75;;;32.33;;
4565;SDS011;2295;51.050;14.608;2023-03-01T06:44:24;55.03;;;21.90;;
4565;SDS011;2295;51.050;14.608;2023-03-01T06:46:53;58.75;;;21.05;;
4565;SDS011;2295;51.050;14.608;2023-03-01T06:49:22;53.47;;;20.85;;
4565;SDS011;2295;51.050;14.608;2023-03-01T06:51:52;74.15;;;26.00;;
4565;SDS011;2295;51.050;14.608;2023-03-01T06:54:20;64.35;;;24.20;;
4565;SDS011;2295;51.050;14.608;2023-03-01T06:56:49;70.55;;;24.67;;
4565;SDS011;2295;51.050;14.608;2023-03-01T06:59:18;57.70;;;24.20;;
4565;SDS011;2295;51.050;14.608;2023-03-01T07:01:47;70.35;;;26.85;;
4565;SDS011;2295;51.050;14.608;2023-03-01T07:04:15;62.17;;;25.33;;
4565;SDS011;2295;51.050;14.608;2023-03-01T07:06:43;66.80;;;24.08;;
4565;SDS011;2295;51.050;14.608;2023-03-01T07:09:13;71.30;;;25.80;;
4565;SDS011;2295;51.050;14.608;2023-03-01T07:11:46;67.68;;;24.42;;
4565;SDS011;2295;51.050;14.608;2023-03-01T07:14:14;74.50;;;25.17;;
4565;SDS011;2295;51.050;14.608;2023-03-01T07:16:43;65.65;;;24.60;;
4565;SDS011;2295;51.050;14.608;2023-03-01T07:19:11;60.67;;;23.42;;
4565;SDS011;2295;51.050;14.608;2023-03-01T07:21:39;69.95;;;27.00;;
4565;SDS011;2295;51.050;14.608;2023-03-01T07:24:08;92.57;;;34.50;;
4565;SDS011;2295;51.050;14.608;2023-03-01T07:26:38;94.75;;;34.90;;
4565;SDS011;2295;51.050;14.608;2023-03-01T07:29:06;109.38;;;41.35;;
4565;SDS011;2295;51.050;14.608;2023-03-01T07:31:36;88.97;;;35.95;;
4565;SDS011;2295;51.050;14.608;2023-03-01T07:34:05;93.20;;;36.15;;
4565;SDS011;2295;51.050;14.608;2023-03-01T07:36:33;107.80;;;40.10;;
4565;SDS011;2295;51.050;14.608;2023-03-01T07:39:02;96.90;;;39.45;;
4565;SDS011;2295;51.050;14.608;2023-03-01T07:41:30;81.65;;;35.42;;
4565;SDS011;2295;51.050;14.608;2023-03-01T07:44:00;85.30;;;36.38;;
4565;SDS011;2295;51.050;14.608;2023-03-01T07:46:29;88.63;;;37.95;;
4565;SDS011;2295;51.050;14.608;2023-03-01T07:48:57;96.90;;;47.13;;
4565;SDS011;2295;51.050;14.608;2023-03-01T07:51:26;81.78;;;38.47;;
4565;SDS011;2295;51.050;14.608;2023-03-01T07:53:54;70.10;;;36.33;;
4565;SDS011;2295;51.050;14.608;2023-03-01T07:56:23;75.72;;;37.60;;
4565;SDS011;2295;51.050;14.608;2023-03-01T07:58:51;77.50;;;37.05;;
4565;SDS011;2295;51.050;14.608;2023-03-01T08:01:22;69.55;;;36.65;;
4565;SDS011;2295;51.050;14.608;2023-03-01T08:03:50;59.92;;;31.90;;
4565;SDS011;2295;51.050;14.608;2023-03-01T08:06:19;61.50;;;31.90;;
4565;SDS011;2295;51.050;14.608;2023-03-01T08:08:50;60.37;;;32.80;;
4565;SDS011;2295;51.050;14.608;2023-03-01T08:11:18;63.07;;;34.20;;
4565;SDS011;2295;51.050;14.608;2023-03-01T08:13:47;69.83;;;36.00;;
4565;SDS011;2295;51.050;14.608;2023-03-01T08:16:19;62.43;;;34.77;;
4565;SDS011;2295;51.050;14.608;2023-03-01T08:18:49;71.73;;;37.77;;
4565;SDS011;2295;51.050;14.608;2023-03-01T08:21:17;63.90;;;34.70;;
4565;SDS011;2295;51.050;14.608;2023-03-01T08:23:46;69.33;;;37.80;;
4565;SDS011;2295;51.050;14.608;2023-03-01T08:26:14;76.17;;;36.67;;
4565;SDS011;2295;51.050;14.608;2023-03-01T08:28:45;57.93;;;31.83;;
4565;SDS011;2295;51.050;14.608;2023-03-01T08:31:15;47.93;;;28.10;;
4565;SDS011;2295;51.050;14.608;2023-03-01T08:33:45;47.90;;;28.17;;
4565;SDS011;2295;51.050;14.608;2023-03-01T08:36:18;54.97;;;30.80;;
4565;SDS011;2295;51.050;14.608;2023-03-01T08:38:47;56.27;;;33.13;;
4565;SDS011;2295;51.050;14.608;2023-03-01T08:41:15;49.83;;;29.27;;
4565;SDS011;2295;51.050;14.608;2023-03-01T08:43:44;55.23;;;31.10;;
4565;SDS011;2295;51.050;14.608;2023-03-01T08:46:13;63.30;;;33.30;;
4565;SDS011;2295;51.050;14.608;2023-03-01T08:48:42;52.65;;;31.08;;
4565;SDS011;2295;51.050;14.608;2023-03-01T08:51:15;58.90;;;30.80;;
4565;SDS011;2295;51.050;14.608;2023-03-01T08:53:46;48.40;;;27.40;;
4565;SDS011;2295;51.050;14.608;2023-03-01T08:56:15;53.80;;;26.63;;
4565;SDS011;2295;51.050;14.608;2023-03-01T08:58:46;52.22;;;29.63;;
4565;SDS011;2295;51.050;14.608;2023-03-01T09:01:16;51.90;;;28.30;;
4565;SDS011;2295;51.050;14.608;2023-03-01T09:03:49;51.17;;;28.08;;
4565;SDS011;2295;51.050;14.608;2023-03-01T09:06:17;48.67;;;28.17;;
4565;SDS011;2295;51.050;14.608;2023-03-01T09:08:48;56.78;;;30.88;;
4565;SDS011;2295;51.050;14.608;2023-03-01T09:11:17;55.33;;;30.35;;
4565;SDS011;2295;51.050;14.608;2023-03-01T09:13:47;65.80;;;33.33;;
4565;SDS011;2295;51.050;14.608;2023-03-01T09:16:17;64.53;;;35.13;;
4565;SDS011;2295;51.050;14.608;2023-03-01T09:18:48;53.85;;;31.33;;
4565;SDS011;2295;51.050;14.608;2023-03-01T09:21:18;51.05;;;28.23;;
4565;SDS011;2295;51.050;14.608;2023-03-01T09:24:06;52.70;;;28.35;;
4565;SDS011;2295;51.050;14.608;2023-03-01T09:26:39;50.13;;;27.92;;
4565;SDS011;2295;51.050;14.608;2023-03-01T09:29:07;58.00;;;28.70;;
4565;SDS011;2295;51.050;14.608;2023-03-01T09:31:37;54.53;;;29.07;;
4565;SDS011;2295;51.050;14.608;2023-03-01T09:34:06;62.30;;;34.63;;
4565;SDS011;2295;51.050;14.608;2023-03-01T09:36:35;63.35;;;30.08;;
4565;SDS011;2295;51.050;14.608;2023-03-01T09:39:04;118.28;;;51.00;;
4565;SDS011;2295;51.050;14.608;2023-03-01T09:41:44;50.58;;;26.70;;
4565;SDS011;2295;51.050;14.608;2023-03-01T09:44:27;69.07;;;28.35;;
4565;SDS011;2295;51.050;14.608;2023-03-01T09:47:05;55.97;;;27.70;;
4565;SDS011;2295;51.050;14.608;2023-03-01T09:49:39;52.33;;;27.60;;
4565;SDS011;2295;51.050;14.608;2023-03-01T09:52:12;54.53;;;27.27;;
4565;SDS011;2295;51.050;14.608;2023-03-01T09:54:53;56.13;;;27.35;;
4565;SDS011;2295;51.050;14.608;2023-03-01T09:57:27;51.95;;;26.92;;
4565;SDS011;2295;51.050;14.608;2023-03-01T10:00:13;52.08;;;26.92;;
4565;SDS011;2295;51.050;14.608;2023-03-01T10:02:48;52.03;;;25.55;;
4565;SDS011;2295;51.050;14.608;2023-03-01T10:05:26;52.63;;;27.35;;
4565;SDS011;2295;51.050;14.608;2023-03-01T10:08:19;49.10;;;25.48;;
4565;SDS011;2295;51.050;14.608;2023-03-01T10:10:59;50.40;;;26.98;;
4565;SDS011;2295;51.050;14.608;2023-03-01T10:13:29;63.67;;;27.48;;
4565;SDS011;2295;51.050;14.608;2023-03-01T10:16:06;56.92;;;26.27;;
4565;SDS011;2295;51.050;14.608;2023-03-01T10:18:41;44.00;;;23.42;;
4565;SDS011;2295;51.050;14.608;2023-03-01T10:21:14;47.95;;;24.13;;
4565;SDS011;2295;51.050;14.608;2023-03-01T10:23:45;50.25;;;24.60;;
4565;SDS011;2295;51.050;14.608;2023-03-01T10:26:31;45.70;;;24.20;;
4565;SDS011;2295;51.050;14.608;2023-03-01T10:29:11;50.58;;;23.52;;
4565;SDS011;2295;51.050;14.608;2023-03-01T10:31:41;48.95;;;21.95;;
4565;SDS011;2295;51.050;14.608;2023-03-01T10:34:13;44.63;;;22.65;;
4565;SDS011;2295;51.050;14.608;2023-03-01T10:36:44;50.08;;;20.95;;
4565;SDS011;2295;51.050;14.608;2023-03-01T10:39:17;46.72;;;22.05;;
4565;SDS011;2295;51.050;14.608;2023-03-01T10:41:55;47.20;;;23.10;;
4565;SDS011;2295;51.050;14.608;2023-03-01T10:47:19;48.15;;;22.20;;
4565;SDS011;2295;51.050;14.608;2023-03-01T10:49:53;44.45;;;20.60;;
4565;SDS011;2295;51.050;14.608;2023-03-01T10:52:29;43.42;;;21.70;;
4565;SDS011;2295;51.050;14.608;2023-03-01T10:55:00;46.30;;;19.63;;
4565;SDS011;2295;51.050;14.608;2023-03-01T10:57:34;41.83;;;19.25;;
4565;SDS011;2295;51.050;14.608;2023-03-01T11:03:02;43.35;;;20.42;;
4565;SDS011;2295;51.050;14.608;2023-03-01T11:05:44;47.67;;;20.40;;
4565;SDS011;2295;51.050;14.608;2023-03-01T11:08:28;38.90;;;19.52;;
4565;SDS011;2295;51.050;14.608;2023-03-01T11:11:04;34.45;;;18.92;;
4565;SDS011;2295;51.050;14.608;2023-03-01T11:13:47;43.30;;;20.38;;
4565;SDS011;2295;51.050;14.608;2023-03-01T11:16:23;40.67;;;19.90;;
4565;SDS011;2295;51.050;14.608;2023-03-01T11:19:12;44.60;;;20.45;;
4565;SDS011;2295;51.050;14.608;2023-03-01T11:21:54;50.35;;;22.10;;
4565;SDS011;2295;51.050;14.608;2023-03-01T11:24:30;50.95;;;22.55;;
4565;SDS011;2295;51.050;14.608;2023-03-01T11:27:03;51.25;;;22.52;;
4565;SDS011;2295;51.050;14.608;2023-03-01T11:29:38;45.47;;;21.65;;
4565;SDS011;2295;51.050;14.608;2023-03-01T11:32:14;44.42;;;19.95;;
4565;SDS011;2295;51.050;14.608;2023-03-01T11:34:44;45.25;;;21.00;;
4565;SDS011;2295;51.050;14.608;2023-03-01T11:37:21;48.40;;;23.15;;
4565;SDS011;2295;51.050;14.608;2023-03-01T11:39:58;48.10;;;24.77;;
4565;SDS011;2295;51.050;14.608;2023-03-01T11:42:37;47.10;;;22.67;;
4565;SDS011;2295;51.050;14.608;2023-03-01T11:45:30;61.80;;;22.10;;
4565;SDS011;2295;51.050;14.608;2023-03-01T11:48:09;52.08;;;23.75;;
4565;SDS011;2295;51.050;14.608;2023-03-01T11:51:09;50.72;;;22.58;;
4565;SDS011;2295;51.050;14.608;2023-03-01T11:53:49;40.45;;;21.38;;
4565;SDS011;2295;51.050;14.608;2023-03-01T11:56:26;55.00;;;23.52;;
4565;SDS011;2295;51.050;14.608;2023-03-01T11:59:08;57.65;;;21.60;;
4565;SDS011;2295;51.050;14.608;2023-03-01T12:02:12;47.15;;;22.02;;
4565;SDS011;2295;51.050;14.608;2023-03-01T12:08:08;50.80;;;23.13;;
4565;SDS011;2295;51.050;14.608;2023-03-01T12:10:42;50.22;;;23.60;;
4565;SDS011;2295;51.050;14.608;2023-03-01T12:22:09;52.67;;;23.38;;
4565;SDS011;2295;51.050;14.608;2023-03-01T12:27:43;49.13;;;22.08;;
4565;SDS011;2295;51.050;14.608;2023-03-01T12:30:33;44.28;;;20.75;;
4565;SDS011;2295;51.050;14.608;2023-03-01T12:33:13;50.20;;;22.30;;
4565;SDS011;2295;51.050;14.608;2023-03-01T12:36:07;58.20;;;22.30;;
4565;SDS011;2295;51.050;14.608;2023-03-01T12:38:48;45.50;;;22.83;;
4565;SDS011;2295;51.050;14.608;2023-03-01T12:41:27;41.88;;;20.70;;
4565;SDS011;2295;51.050;14.608;2023-03-01T12:44:11;49.35;;;22.63;;
4565;SDS011;2295;51.050;14.608;2023-03-01T12:49:44;53.95;;;22.63;;
4565;SDS011;2295;51.050;14.608;2023-03-01T12:52:18;47.20;;;23.00;;
4565;SDS011;2295;51.050;14.608;2023-03-01T12:54:51;50.53;;;21.90;;
4565;SDS011;2295;51.050;14.608;2023-03-01T12:57:25;57.20;;;24.27;;
4565;SDS011;2295;51.050;14.608;2023-03-01T13:00:06;57.65;;;24.73;;
4565;SDS011;2295;51.050;14.608;2023-03-01T13:02:50;50.78;;;22.95;;
4565;SDS011;2295;51.050;14.608;2023-03-01T13:05:24;55.20;;;22.80;;
4565;SDS011;2295;51.050;14.608;2023-03-01T13:08:05;50.03;;;22.77;;
4565;SDS011;2295;51.050;14.608;2023-03-01T13:10:40;49.15;;;22.23;;
4565;SDS011;2295;51.050;14.608;2023-03-01T13:13:19;50.72;;;22.38;;
4565;SDS011;2295;51.050;14.608;2023-03-01T13:15:48;56.92;;;23.00;;
4565;SDS011;2295;51.050;14.608;2023-03-01T13:18:30;48.72;;;22.23;;
4565;SDS011;2295;51.050;14.608;2023-03-01T13:21:01;42.90;;;19.80;;
4565;SDS011;2295;51.050;14.608;2023-03-01T13:23:34;50.25;;;19.83;;
4565;SDS011;2295;51.050;14.608;2023-03-01T13:26:05;93.32;;;38.10;;
4565;SDS011;2295;51.050;14.608;2023-03-01T13:28:42;36.58;;;17.67;;
4565;SDS011;2295;51.050;14.608;2023-03-01T13:34:47;39.15;;;17.73;;
4565;SDS011;2295;51.050;14.608;2023-03-01T13:37:27;38.63;;;17.75;;
4565;SDS011;2295;51.050;14.608;2023-03-01T13:40:07;38.78;;;17.95;;
4565;SDS011;2295;51.050;14.608;2023-03-01T13:43:28;36.13;;;17.00;;
4565;SDS011;2295;51.050;14.608;2023-03-01T13:45:59;38.53;;;16.85;;
4565;SDS011;2295;51.050;14.608;2023-03-01T13:48:29;27.10;;;13.88;;
4565;SDS011;2295;51.050;14.608;2023-03-01T13:50:59;26.70;;;12.27;;
4565;SDS011;2295;51.050;14.608;2023-03-01T13:53:30;23.70;;;11.45;;
4565;SDS011;2295;51.050;14.608;2023-03-01T13:56:07;18.20;;;9.40;;
4565;SDS011;2295;51.050;14.608;2023-03-01T13:58:47;22.23;;;10.60;;
4565;SDS011;2295;51.050;14.608;2023-03-01T14:01:22;21.88;;;10.68;;
4565;SDS011;2295;51.050;14.608;2023-03-01T14:03:53;22.20;;;9.07;;
4565;SDS011;2295;51.050;14.608;2023-03-01T14:06:23;24.70;;;9.88;;
4565;SDS011;2295;51.050;14.608;2023-03-01T14:09:00;21.98;;;9.75;;
4565;SDS011;2295;51.050;14.608;2023-03-01T14:11:49;22.23;;;9.38;;
4565;SDS011;2295;51.050;14.608;2023-03-01T14:14:51;24.02;;;10.13;;
4565;SDS011;2295;51.050;14.608;2023-03-01T14:20:14;23.40;;;9.90;;
4565;SDS011;2295;51.050;14.608;2023-03-01T14:22:50;23.50;;;10.63;;
4565;SDS011;2295;51.050;14.608;2023-03-01T14:25:25;18.45;;;9.27;;
4565;SDS011;2295;51.050;14.608;2023-03-01T14:27:59;19.92;;;9.70;;
4565;SDS011;2295;51.050;14.608;2023-03-01T14:30:34;23.10;;;10.82;;
4565;SDS011;2295;51.050;14.608;2023-03-01T14:33:06;20.15;;;9.15;;
4565;SDS011;2295;51.050;14.608;2023-03-01T14:35:52;19.23;;;9.07;;
4565;SDS011;2295;51.050;14.608;2023-03-01T14:38:22;17.55;;;8.82;;
4565;SDS011;2295;51.050;14.608;2023-03-01T14:40:56;18.38;;;8.88;;
4565;SDS011;2295;51.050;14.608;2023-03-01T14:43:30;20.92;;;8.88;;
4565;SDS011;2295;51.050;14.608;2023-03-01T14:45:59;15.55;;;8.30;;
4565;SDS011;2295;51.050;14.608;2023-03-01T14:48:28;16.60;;;9.77;;
4565;SDS011;2295;51.050;14.608;2023-03-01T14:50:57;23.02;;;9.65;;
4565;SDS011;2295;51.050;14.608;2023-03-01T14:53:28;18.88;;;9.70;;
4565;SDS011;2295;51.050;14.608;2023-03-01T14:56:12;19.40;;;9.23;;
4565;SDS011;2295;51.050;14.608;2023-03-01T14:58:45;16.70;;;8.13;;
4565;SDS011;2295;51.050;14.608;2023-03-01T15:01:15;20.95;;;10.15;;
4565;SDS011;2295;51.050;14.608;2023-03-01T15:03:46;22.13;;;10.43;;
4565;SDS011;2295;51.050;14.608;2023-03-01T15:06:16;24.35;;;9.30;;
4565;SDS011;2295;51.050;14.608;2023-03-01T15:08:47;17.63;;;9.00;;
4565;SDS011;2295;51.050;14.608;2023-03-01T15:11:19;14.63;;;7.60;;
4565;SDS011;2295;51.050;14.608;2023-03-01T15:13:52;15.73;;;7.28;;
4565;SDS011;2295;51.050;14.608;2023-03-01T15:16:22;13.50;;;6.72;;
4565;SDS011;2295;51.050;14.608;2023-03-01T15:18:54;25.45;;;7.70;;
4565;SDS011;2295;51.050;14.608;2023-03-01T15:21:25;12.88;;;7.50;;
4565;SDS011;2295;51.050;14.608;2023-03-01T15:23:56;19.70;;;8.77;;
4565;SDS011;2295;51.050;14.608;2023-03-01T15:26:29;19.98;;;8.00;;
4565;SDS011;2295;51.050;14.608;2023-03-01T15:29:04;18.15;;;8.43;;
4565;SDS011;2295;51.050;14.608;2023-03-01T15:31:43;16.25;;;7.78;;
4565;SDS011;2295;51.050;14.608;2023-03-01T15:34:21;14.45;;;7.63;;
4565;SDS011;2295;51.050;14.608;2023-03-01T15:36:51;16.15;;;8.25;;
4565;SDS011;2295;51.050;14.608;2023-03-01T15:39:26;12.70;;;7.35;;
4565;SDS011;2295;51.050;14.608;2023-03-01T15:42:07;16.95;;;8.15;;
4565;SDS011;2295;51.050;14.608;2023-03-01T15:44:39;18.65;;;8.57;;
4565;SDS011;2295;51.050;14.608;2023-03-01T15:47:25;16.92;;;7.88;;
4565;SDS011;2295;51.050;14.608;2023-03-01T15:49:55;18.77;;;8.20;;
4565;SDS011;2295;51.050;14.608;2023-03-01T15:52:29;23.63;;;9.00;;
4565;SDS011;2295;51.050;14.608;2023-03-01T15:55:04;19.65;;;8.40;;
4565;SDS011;2295;51.050;14.608;2023-03-01T15:57:43;15.07;;;8.10;;
4565;SDS011;2295;51.050;14.608;2023-03-01T16:00:16;17.33;;;8.82;;
4565;SDS011;2295;51.050;14.608;2023-03-01T16:02:45;15.30;;;7.97;;
4565;SDS011;2295;51.050;14.608;2023-03-01T16:05:18;23.60;;;9.30;;
4565;SDS011;2295;51.050;14.608;2023-03-01T16:07:48;17.40;;;8.88;;
4565;SDS011;2295;51.050;14.608;2023-03-01T16:10:16;19.58;;;8.70;;
4565;SDS011;2295;51.050;14.608;2023-03-01T16:12:48;19.38;;;8.52;;
4565;SDS011;2295;51.050;14.608;2023-03-01T16:15:23;16.83;;;8.63;;
4565;SDS011;2295;51.050;14.608;2023-03-01T16:17:55;17.73;;;8.65;;
4565;SDS011;2295;51.050;14.608;2023-03-01T16:20:24;22.73;;;9.10;;
4565;SDS011;2295;51.050;14.608;2023-03-01T16:22:57;24.80;;;9.85;;
4565;SDS011;2295;51.050;14.608;2023-03-01T16:25:27;32.78;;;11.52;;
4565;SDS011;2295;51.050;14.608;2023-03-01T16:27:56;27.38;;;11.52;;
4565;SDS011;2295;51.050;14.608;2023-03-01T16:30:29;31.42;;;12.02;;
4565;SDS011;2295;51.050;14.608;2023-03-01T16:32:57;36.70;;;13.52;;
4565;SDS011;2295;51.050;14.608;2023-03-01T16:35:26;34.10;;;13.65;;
4565;SDS011;2295;51.050;14.608;2023-03-01T16:37:58;30.10;;;11.50;;
4565;SDS011;2295;51.050;14.608;2023-03-01T16:40:28;30.35;;;12.30;;
4565;SDS011;2295;51.050;14.608;2023-03-01T16:42:57;29.88;;;11.95;;
4565;SDS011;2295;51.050;14.608;2023-03-01T16:45:32;35.10;;;13.15;;
4565;SDS011;2295;51.050;14.608;2023-03-01T16:48:02;32.65;;;12.07;;
4565;SDS011;2295;51.050;14.608;2023-03-01T16:50:32;27.92;;;11.85;;
4565;SDS011;2295;51.050;14.608;2023-03-01T16:53:01;40.45;;;16.02;;
4565;SDS011;2295;51.050;14.608;2023-03-01T16:55:30;66.03;;;23.30;;
4565;SDS011;2295;51.050;14.608;2023-03-01T16:58:02;60.72;;;18.98;;
4565;SDS011;2295;51.050;14.608;2023-03-01T17:00:33;32.60;;;13.82;;
4565;SDS011;2295;51.050;14.608;2023-03-01T17:03:02;31.05;;;13.25;;
4565;SDS011;2295;51.050;14.608;2023-03-01T17:05:31;35.40;;;13.32;;
4565;SDS011;2295;51.050;14.608;2023-03-01T17:07:59;32.58;;;13.30;;
4565;SDS011;2295;51.050;14.608;2023-03-01T17:10:27;39.70;;;17.13;;
4565;SDS011;2295;51.050;14.608;2023-03-01T17:12:56;35.38;;;13.70;;
4565;SDS011;2295;51.050;14.608;2023-03-01T17:15:24;33.30;;;12.93;;
4565;SDS011;2295;51.050;14.608;2023-03-01T17:17:57;28.05;;;11.93;;
4565;SDS011;2295;51.050;14.608;2023-03-01T17:20:26;34.22;;;13.27;;
4565;SDS011;2295;51.050;14.608;2023-03-01T17:22:55;33.95;;;13.52;;
4565;SDS011;2295;51.050;14.608;2023-03-01T17:25:24;32.08;;;13.48;;
4565;SDS011;2295;51.050;14.608;2023-03-01T17:27:52;32.33;;;13.98;;
4565;SDS011;2295;51.050;14.608;2023-03-01T17:30:21;37.22;;;14.70;;
4565;SDS011;2295;51.050;14.608;2023-03-01T17:32:49;37.00;;;14.88;;
4565;SDS011;2295;51.050;14.608;2023-03-01T17:35:22;37.40;;;14.23;;
4565;SDS011;2295;51.050;14.608;2023-03-01T17:37:50;33.67;;;15.10;;
4565;SDS011;2295;51.050;14.608;2023-03-01T17:40:22;38.33;;;13.07;;
4565;SDS011;2295;51.050;14.608;2023-03-01T17:42:53;33.88;;;12.85;;
4565;SDS011;2295;51.050;14.608;2023-03-01T17:45:22;28.80;;;12.60;;
4565;SDS011;2295;51.050;14.608;2023-03-01T17:47:50;30.50;;;12.82;;
4565;SDS011;2295;51.050;14.608;2023-03-01T17:50:19;41.95;;;14.98;;
4565;SDS011;2295;51.050;14.608;2023-03-01T17:52:48;50.42;;;17.33;;
4565;SDS011;2295;51.050;14.608;2023-03-01T17:55:16;37.53;;;15.15;;